Time;durP1;ratioP1;P1;durP2;ratioP2;P2;SDS_P1;SDS_P2;PMS_P1;PMS_P2;Temp;Humidity;BMP_temperature;BMP_pressure;BME280_temperature;BME280_humidity;BME280_pressure;Samples;Min_cycle;Max_cycle;Signal;HPM_P1;HPM_P2
2021/04/29 00:05:46;;;;;;;3.72;1.92;;;20.40;40.90;;;;;;20992785;28;20103;-23
2021/04/29 00:15:48;;;;;;;4.00;1.83;;;20.40;41.00;;;;;;20992465;28;20035;-22
2021/04/29 00:25:48;;;;;;;4.53;2.10;;;20.30;40.90;;;;;;20991394;28;20021;-22
2021/04/29 00:35:49;;;;;;;4.00;1.70;;;20.20;40.90;;;;;;21012451;28;20039;-23
2021/04/29 00:45:50;;;;;;;3.85;1.58;;;20.20;41.00;;;;;;21016901;28;20029;-23
2021/04/29 00:55:50;;;;;;;3.03;1.38;;;20.20;40.90;;;;;;21017168;28;20028;-23
2021/04/29 01:05:58;;;;;;;2.65;1.80;;;20.10;41.00;;;;;;20985387;28;20032;-22
2021/04/29 01:16:00;;;;;;;3.72;2.05;;;20.10;41.00;;;;;;21018384;22;20051;-23
2021/04/29 01:26:09;;;;;;;5.97;1.45;;;20.00;41.00;;;;;;20847944;28;20472;-21
2021/04/29 01:36:10;;;;;;;2.90;1.60;;;20.00;40.90;;;;;;20843448;28;20029;-22
2021/04/29 01:46:11;;;;;;;4.35;1.50;;;20.00;40.90;;;;;;20854242;28;20033;-22
2021/04/29 01:56:11;;;;;;;3.22;1.73;;;20.00;41.00;;;;;;20864268;28;20033;-22
2021/04/29 02:06:12;;;;;;;3.55;1.65;;;20.00;41.00;;;;;;20851854;28;20112;-24
2021/04/29 02:16:37;;;;;;;2.63;1.77;;;20.00;41.00;;;;;;20837438;28;20119;-22
2021/04/29 02:26:38;;;;;;;4.95;2.30;;;19.90;41.00;;;;;;20851786;28;20476;-22
2021/04/29 02:36:40;;;;;;;3.53;1.25;;;19.90;41.00;;;;;;20846940;28;20056;-23
2021/04/29 02:46:41;;;;;;;3.10;1.60;;;19.90;41.10;;;;;;20835650;28;20037;-23
2021/04/29 02:56:43;;;;;;;3.17;1.50;;;19.80;41.10;;;;;;20852826;28;20818;-22
2021/04/29 03:06:44;;;;;;;2.42;1.45;;;19.80;41.20;;;;;;20866882;28;20033;-22
2021/04/29 03:16:44;;;;;;;1.58;1.10;;;19.80;41.20;;;;;;20853432;28;20057;-22
2021/04/29 03:26:45;;;;;;;4.13;1.48;;;19.80;41.30;;;;;;20859308;28;20480;-21
2021/04/29 03:36:46;;;;;;;1.98;1.33;;;19.80;41.30;;;;;;20874744;28;20518;-22
2021/04/29 03:46:46;;;;;;;2.20;1.30;;;19.80;41.40;;;;;;20851680;28;20128;-22
2021/04/29 03:56:47;;;;;;;6.13;1.33;;;19.70;41.40;;;;;;20847093;28;20029;-22
2021/04/29 04:06:48;;;;;;;2.70;1.52;;;19.80;41.50;;;;;;20837213;28;20042;-23
2021/04/29 04:16:48;;;;;;;5.10;1.58;;;19.80;41.60;;;;;;20825163;28;20041;-23
2021/04/29 04:26:49;;;;;;;2.27;1.10;;;20.10;41.60;;;;;;20820669;28;20025;-23
2021/04/29 04:36:49;;;;;;;2.65;1.52;;;20.80;40.60;;;;;;20823424;28;20471;-23
2021/04/29 04:46:50;;;;;;;1.98;1.40;;;21.40;39.70;;;;;;20821255;28;20021;-22
2021/04/29 04:56:50;;;;;;;2.97;1.50;;;21.50;39.80;;;;;;20821248;28;20151;-22
2021/04/29 05:06:51;;;;;;;2.65;1.33;;;21.30;40.20;;;;;;20822101;28;20428;-21
2021/04/29 05:16:51;;;;;;;2.38;1.10;;;21.10;40.60;;;;;;20820516;28;20029;-23
2021/04/29 05:26:52;;;;;;;11.25;2.97;;;21.00;41.00;;;;;;20835366;28;20052;-21
2021/04/29 05:36:53;;;;;;;13.57;3.80;;;20.90;41.30;;;;;;20833899;28;20025;-22
2021/04/29 05:46:53;;;;;;;9.13;3.75;;;20.70;41.70;;;;;;20833274;28;20479;-23
2021/04/29 05:56:54;;;;;;;14.45;4.20;;;20.70;42.00;;;;;;20832096;28;20037;-23
2021/04/29 06:06:55;;;;;;;8.48;3.38;;;20.60;42.20;;;;;;20830973;28;20025;-23
2021/04/29 06:16:56;;;;;;;10.38;4.68;;;20.40;42.50;;;;;;20837862;28;20136;-23
2021/04/29 06:26:56;;;;;;;6.78;3.05;;;20.30;42.90;;;;;;20828053;28;20124;-23
2021/04/29 06:36:57;;;;;;;6.57;3.83;;;20.40;42.90;;;;;;20827993;28;20056;-23
2021/04/29 06:46:58;;;;;;;10.35;3.72;;;20.50;43.00;;;;;;20861715;28;20499;-23
2021/04/29 06:56:59;;;;;;;4.88;3.47;;;20.60;43.00;;;;;;20828510;28;20356;-22
2021/04/29 07:07:00;;;;;;;9.95;4.07;;;20.60;43.00;;;;;;20795793;28;20104;-22
2021/04/29 07:17:01;;;;;;;7.60;4.40;;;20.70;42.80;;;;;;20831158;28;20104;-22
2021/04/29 07:27:03;;;;;;;9.00;4.22;;;20.50;43.00;;;;;;20848196;28;20067;-21
2021/04/29 07:37:04;;;;;;;6.65;4.00;;;20.50;43.10;;;;;;20851671;28;20033;-22
2021/04/29 07:47:04;;;;;;;4.68;3.42;;;20.40;43.30;;;;;;20852910;28;20094;-21
2021/04/29 07:57:05;;;;;;;73.05;42.80;;;20.20;43.50;;;;;;20834341;28;20053;-22
2021/04/29 08:07:06;;;;;;;98.50;49.95;;;20.10;44.00;;;;;;20807166;28;20416;-21
2021/04/29 08:17:06;;;;;;;66.95;40.55;;;20.10;45.30;;;;;;20822984;28;20123;-22
2021/04/29 08:27:07;;;;;;;58.45;34.08;;;20.10;45.70;;;;;;20849631;28;20511;-21
2021/04/29 08:37:07;;;;;;;61.33;34.58;;;20.00;45.60;;;;;;20850871;28;20627;-21
2021/04/29 08:47:08;;;;;;;49.17;25.42;;;20.10;46.00;;;;;;20817217;28;20041;-22
2021/04/29 08:57:09;;;;;;;42.85;23.02;;;20.10;45.90;;;;;;20833122;28;20036;-22
2021/04/29 09:07:20;;;;;;;39.25;20.55;;;20.10;46.00;;;;;;20858737;28;20634;-22
2021/04/29 09:17:23;;;;;;;34.47;16.80;;;20.00;46.30;;;;;;20852582;28;20041;-22
2021/04/29 09:27:24;;;;;;;35.28;16.00;;;20.00;46.10;;;;;;20839240;28;20504;-21
2021/04/29 09:37:33;;;;;;;23.53;13.53;;;20.00;46.20;;;;;;20834139;28;20482;-22
2021/04/29 09:47:34;;;;;;;23.63;13.13;;;19.90;45.50;;;;;;20837037;28;20480;-22
2021/04/29 09:57:34;;;;;;;21.00;12.05;;;19.90;45.30;;;;;;20832041;28;20033;-22
2021/04/29 10:07:35;;;;;;;18.33;9.77;;;19.80;45.10;;;;;;20829273;28;20435;-22
2021/04/29 10:17:35;;;;;;;20.00;12.38;;;19.80;45.00;;;;;;20803367;28;20045;-23
2021/04/29 10:27:44;;;;;;;21.88;10.52;;;19.80;45.70;;;;;;20817293;28;20034;-22
2021/04/29 10:38:01;;;;;;;21.43;9.50;;;19.80;45.90;;;;;;20835332;28;20087;-22
2021/04/29 10:48:11;;;;;;;18.17;7.93;;;19.80;46.30;;;;;;20816573;28;20460;-22
2021/04/29 10:58:25;;;;;;;15.57;7.90;;;19.80;46.40;;;;;;20845334;28;20040;-22
2021/04/29 11:08:43;;;;;;;20.08;7.20;;;19.80;46.40;;;;;;20851210;28;20036;-22
2021/04/29 11:18:45;;;;;;;16.10;6.50;;;19.80;46.40;;;;;;20852325;28;20029;-22
2021/04/29 11:28:55;;;;;;;16.83;6.93;;;19.80;46.70;;;;;;20858703;28;20040;-22
2021/04/29 11:39:04;;;;;;;13.70;7.13;;;19.80;46.80;;;;;;20830778;28;20033;-22
2021/04/29 11:49:07;;;;;;;11.98;5.70;;;19.80;46.80;;;;;;20845751;28;20052;-21
2021/04/29 11:59:08;;;;;;;13.48;6.20;;;19.80;46.80;;;;;;20826954;28;20025;-22
2021/04/29 12:09:12;;;;;;;7.05;4.38;;;19.80;47.00;;;;;;20843116;28;20036;-22
2021/04/29 12:19:13;;;;;;;12.38;5.18;;;19.80;47.00;;;;;;20847148;28;20033;-22
2021/04/29 12:29:19;;;;;;;8.60;5.10;;;19.80;47.20;;;;;;20842431;28;20064;-22
2021/04/29 12:39:23;;;;;;;8.13;4.35;;;19.80;47.40;;;;;;20818702;28;20036;-21
2021/04/29 12:49:24;;;;;;;8.48;4.68;;;19.80;47.20;;;;;;20780449;28;20115;-22
2021/04/29 12:59:25;;;;;;;11.82;5.07;;;19.80;47.30;;;;;;20808051;28;20029;-21
2021/04/29 13:09:40;;;;;;;7.97;4.67;;;19.80;47.40;;;;;;20809474;28;20029;-22
2021/04/29 13:19:44;;;;;;;7.88;4.53;;;19.80;47.30;;;;;;20800582;28;20700;-22
2021/04/29 13:29:44;;;;;;;5.95;3.50;;;19.80;47.20;;;;;;20829396;28;20357;-22
2021/04/29 13:39:45;;;;;;;8.32;3.75;;;19.80;48.00;;;;;;20860313;28;20234;-22
2021/04/29 13:49:46;;;;;;;7.77;3.93;;;19.90;48.60;;;;;;20820373;28;20030;-22
2021/04/29 13:59:46;;;;;;;8.77;3.20;;;19.80;48.30;;;;;;20847330;28;20563;-22
2021/04/29 14:09:47;;;;;;;7.90;3.45;;;19.80;48.30;;;;;;20836474;28;20056;-22
2021/04/29 14:19:49;;;;;;;6.80;3.30;;;19.80;48.00;;;;;;20769444;28;20038;-22
2021/04/29 14:29:49;;;;;;;8.05;3.92;;;19.80;47.80;;;;;;20836356;28;20029;-23
2021/04/29 14:39:50;;;;;;;3.70;2.83;;;19.80;47.90;;;;;;20844955;28;20040;-22
2021/04/29 14:49:54;;;;;;;7.93;3.07;;;19.80;47.90;;;;;;20835089;28;20184;-22
2021/04/29 14:59:55;;;;;;;5.90;3.35;;;19.80;48.00;;;;;;20849941;28;20463;-22
2021/04/29 15:09:56;;;;;;;8.13;3.00;;;19.70;47.70;;;;;;20822940;28;20041;-21
2021/04/29 15:19:56;;;;;;;5.00;3.10;;;19.70;47.80;;;;;;20839872;28;20034;-21
2021/04/29 15:29:57;;;;;;;4.63;2.38;;;19.70;47.90;;;;;;20831033;28;20036;-21
2021/04/29 15:39:57;;;;;;;5.03;2.92;;;19.70;47.80;;;;;;20845644;28;20514;-22
2021/04/29 15:49:58;;;;;;;3.97;2.55;;;19.80;47.50;;;;;;20874559;22;20064;-23
2021/04/29 15:59:58;;;;;;;3.07;2.17;;;20.30;46.40;;;;;;20995025;28;20032;-23
2021/04/29 16:09:59;;;;;;;10.82;2.25;;;21.20;44.70;;;;;;20990146;28;20584;-23
2021/04/29 16:20:00;;;;;;;8.30;3.15;;;21.80;44.30;;;;;;20991890;28;20036;-23
2021/04/29 16:30:03;;;;;;;6.67;2.50;;;22.40;43.50;;;;;;20970548;28;20032;-23
2021/04/29 16:40:07;;;;;;;7.72;2.65;;;22.40;43.70;;;;;;20986532;28;20446;-23
2021/04/29 16:50:09;;;;;;;10.75;2.50;;;22.20;44.70;;;;;;20988030;28;20590;-22
2021/04/29 17:00:17;;;;;;;7.22;2.38;;;22.00;45.80;;;;;;20992464;28;20055;-25
2021/04/29 17:10:21;;;;;;;8.80;3.58;;;21.80;46.90;;;;;;20988678;28;20094;-22
2021/04/29 17:20:23;;;;;;;11.35;3.50;;;21.60;47.30;;;;;;20998347;28;20059;-23
2021/04/29 17:30:24;;;;;;;15.15;2.55;;;21.50;48.20;;;;;;21008198;28;20528;-22
2021/04/29 17:40:24;;;;;;;14.45;3.53;;;21.40;48.80;;;;;;20998986;28;20439;-22
2021/04/29 17:50:25;;;;;;;15.07;3.70;;;21.30;48.90;;;;;;20983972;28;20112;-22
2021/04/29 18:00:27;;;;;;;12.90;3.15;;;21.30;49.00;;;;;;20962316;28;20071;-23
2021/04/29 18:10:27;;;;;;;12.15;3.25;;;21.20;49.50;;;;;;20976304;28;20043;-23
2021/04/29 18:20:28;;;;;;;8.17;2.57;;;21.20;49.20;;;;;;20980021;28;20056;-22
2021/04/29 18:30:29;;;;;;;39.08;5.35;;;21.20;49.40;;;;;;20972561;28;20829;-22
2021/04/29 18:40:30;;;;;;;13.88;2.90;;;21.10;50.20;;;;;;20981339;28;20036;-23
2021/04/29 18:50:31;;;;;;;19.43;3.87;;;21.10;49.80;;;;;;20945028;28;20025;-23
2021/04/29 19:00:31;;;;;;;10.10;3.30;;;21.00;49.60;;;;;;20979621;28;20452;-23
2021/04/29 19:10:33;;;;;;;15.40;2.67;;;21.00;49.60;;;;;;20977110;28;20505;-24
2021/04/29 19:20:33;;;;;;;16.50;3.35;;;21.00;49.60;;;;;;20963859;28;20033;-23
2021/04/29 19:30:34;;;;;;;12.52;3.03;;;21.20;49.00;;;;;;20959841;28;20033;-24
2021/04/29 19:40:35;;;;;;;5.43;1.80;;;21.20;48.90;;;;;;20963978;28;20023;-23
2021/04/29 19:50:35;;;;;;;8.93;2.60;;;21.50;48.70;;;;;;20962673;28;20471;-22
2021/04/29 20:00:36;;;;;;;9.10;3.13;;;21.50;49.20;;;;;;20969098;28;20032;-22
2021/04/29 20:10:37;;;;;;;8.30;2.30;;;21.50;50.20;;;;;;20966249;28;20837;-22
2021/04/29 20:20:38;;;;;;;12.27;3.17;;;21.30;50.50;;;;;;20967959;28;20536;-22
2021/04/29 20:30:38;;;;;;;9.63;2.60;;;21.20;50.70;;;;;;20966401;28;20025;-21
2021/04/29 20:40:39;;;;;;;9.02;3.13;;;21.10;51.00;;;;;;20964006;28;20074;-22
2021/04/29 20:50:40;;;;;;;5.95;2.45;;;20.90;51.50;;;;;;20952315;28;20115;-22
2021/04/29 21:00:40;;;;;;;14.52;3.08;;;20.80;51.80;;;;;;20985772;28;20035;-22
2021/04/29 21:10:41;;;;;;;12.65;3.08;;;20.60;51.50;;;;;;20961902;28;20029;-21
2021/04/29 21:20:42;;;;;;;6.30;1.88;;;20.50;51.30;;;;;;20976373;28;20046;-22
2021/04/29 21:30:43;;;;;;;5.57;1.80;;;20.50;51.40;;;;;;20980715;28;20032;-23
2021/04/29 21:40:45;;;;;;;10.90;2.17;;;20.40;51.00;;;;;;20975450;28;20040;-23
2021/04/29 21:50:48;;;;;;;6.65;1.85;;;20.30;50.80;;;;;;20991347;28;20433;-22
2021/04/29 22:00:51;;;;;;;8.63;2.30;;;20.20;50.80;;;;;;20907976;22;20041;-22
2021/04/29 22:10:53;;;;;;;5.03;1.60;;;20.20;50.90;;;;;;20855648;28;20511;-22
2021/04/29 22:20:54;;;;;;;8.00;2.10;;;20.10;51.10;;;;;;20831795;28;20022;-21
2021/04/29 22:30:55;;;;;;;6.63;2.10;;;20.10;51.10;;;;;;20843852;28;20534;-22
2021/04/29 22:40:55;;;;;;;4.07;1.77;;;20.00;51.30;;;;;;20829588;28;20049;-21
2021/04/29 22:50:56;;;;;;;3.33;1.33;;;19.90;51.50;;;;;;20828264;28;20174;-21
2021/04/29 23:00:56;;;;;;;3.38;1.70;;;19.80;51.50;;;;;;20831482;28;20071;-22
2021/04/29 23:10:57;;;;;;;6.75;1.40;;;19.70;51.50;;;;;;20834273;28;20104;-22
2021/04/29 23:20:57;;;;;;;2.50;0.93;;;19.70;51.60;;;;;;20808177;28;20026;-22
2021/04/29 23:30:58;;;;;;;3.80;1.75;;;19.60;51.50;;;;;;20823630;28;20478;-22
2021/04/29 23:40:58;;;;;;;4.03;1.45;;;19.70;51.80;;;;;;20824664;28;20053;-22
2021/04/29 23:50:59;;;;;;;2.65;1.40;;;19.70;52.50;;;;;;20848803;28;20410;-23
